Time;durP1;ratioP1;P1;durP2;ratioP2;P2;SDS_P1;SDS_P2;PMS_P1;PMS_P2;Temp;Humidity;BMP_temperature;BMP_pressure;BME280_temperature;BME280_humidity;BME280_pressure;Samples;Min_cycle;Max_cycle;Signal;HPM_P1;HPM_P2
2023/05/04 00:00:01;;;;;;;;;14.50;14.50;;;;;10.07;59.78;102423.44;4974459;28;10939;-67
2023/05/04 00:02:30;;;;;;;;;13.00;13.00;;;;;10.18;60.38;102420.53;4974701;28;10926;-67
2023/05/04 00:04:56;;;;;;;;;10.75;10.75;;;;;10.14;59.75;102417.31;5009081;28;10872;-66
2023/05/04 00:07:23;;;;;;;;;15.25;9.50;;;;;10.17;59.65;102413.47;5017361;28;10953;-67
2023/05/04 00:09:50;;;;;;;;;18.75;16.00;;;;;10.10;59.46;102413.22;4991862;28;10845;-66
2023/05/04 00:12:17;;;;;;;;;16.75;15.25;;;;;10.16;60.14;102417.16;4983376;28;11062;-66
2023/05/04 00:14:43;;;;;;;;;10.25;8.00;;;;;10.21;59.72;102406.78;4988477;28;11067;-66
2023/05/04 00:17:11;;;;;;;;;16.75;15.75;;;;;10.16;59.47;102422.53;5000026;28;10853;-66
2023/05/04 00:19:40;;;;;;;;;13.25;13.25;;;;;10.00;59.50;102415.13;4984839;28;10930;-66
2023/05/04 00:22:07;;;;;;;;;11.50;8.50;;;;;10.03;60.17;102417.53;4999575;28;10836;-67
2023/05/04 00:24:34;;;;;;;;;15.00;14.25;;;;;10.01;59.20;102407.94;5010310;28;11622;-66
2023/05/04 00:27:01;;;;;;;;;15.50;14.50;;;;;9.95;60.31;102412.06;4999130;28;11384;-66
2023/05/04 00:29:27;;;;;;;;;18.00;14.75;;;;;9.95;59.42;102404.00;4988166;28;11074;-67
2023/05/04 00:31:54;;;;;;;;;13.25;8.75;;;;;9.95;60.48;102403.16;4985943;28;11175;-67
2023/05/04 00:34:21;;;;;;;;;20.50;17.00;;;;;9.92;59.47;102401.59;4983792;28;10818;-67
2023/05/04 00:36:48;;;;;;;;;14.25;14.00;;;;;9.80;60.25;102400.13;4993503;28;11050;-67
2023/05/04 00:39:14;;;;;;;;;13.75;12.00;;;;;9.83;60.85;102397.97;4998534;28;11667;-66
2023/05/04 00:41:41;;;;;;;;;15.00;14.25;;;;;9.85;60.71;102396.00;5013447;28;11776;-67
2023/05/04 00:44:08;;;;;;;;;14.00;14.00;;;;;9.87;60.92;102398.53;5003264;28;11040;-66
2023/05/04 00:46:35;;;;;;;;;13.50;11.25;;;;;9.91;59.67;102397.22;4994306;28;11179;-67
2023/05/04 00:49:02;;;;;;;;;12.25;12.25;;;;;9.87;60.39;102396.66;5008854;28;11237;-67
2023/05/04 00:51:29;;;;;;;;;12.25;10.25;;;;;9.78;60.04;102389.53;5005802;28;10868;-66
2023/05/04 00:53:57;;;;;;;;;13.25;11.50;;;;;9.73;60.69;102386.44;4986597;28;11049;-67
2023/05/04 00:56:24;;;;;;;;;11.25;10.25;;;;;9.76;61.14;102396.03;4994027;28;11657;-67
2023/05/04 00:58:56;;;;;;;;;22.25;14.25;;;;;9.66;60.77;102388.88;4976349;28;10957;-67
2023/05/04 01:01:24;;;;;;;;;15.00;14.50;;;;;9.68;61.04;102391.41;4973066;28;11290;-67
2023/05/04 01:03:53;;;;;;;;;14.25;12.50;;;;;9.66;61.07;102377.28;4991396;28;10935;-66
2023/05/04 01:06:28;;;;;;;;;13.00;13.00;;;;;9.69;60.74;102387.75;5014465;28;11670;-66
2023/05/04 01:09:18;;;;;;;;;18.50;14.00;;;;;9.77;60.74;102385.16;4988729;28;11148;-67
2023/05/04 01:11:57;;;;;;;;;13.50;13.00;;;;;9.76;61.02;102375.38;5001831;28;11019;-66
2023/05/04 01:14:24;;;;;;;;;16.25;15.25;;;;;9.70;60.20;102373.28;4995032;28;11209;-66
2023/05/04 01:16:56;;;;;;;;;15.50;14.25;;;;;9.60;60.74;102370.69;5001253;28;11007;-65
2023/05/04 01:19:23;;;;;;;;;14.50;11.50;;;;;9.57;61.08;102365.59;5018469;28;11316;-66
2023/05/04 01:21:50;;;;;;;;;13.50;13.50;;;;;9.56;60.85;102371.09;4987861;23;11172;-67
2023/05/04 01:24:16;;;;;;;;;14.75;13.50;;;;;9.55;61.29;102364.03;4960348;28;11330;-68
2023/05/04 01:26:45;;;;;;;;;14.50;11.00;;;;;9.48;60.85;102355.75;4969004;28;11277;-67
2023/05/04 01:29:18;;;;;;;;;11.00;11.00;;;;;9.45;60.83;102360.56;4971325;28;11186;-68
2023/05/04 01:31:45;;;;;;;;;10.25;9.25;;;;;9.44;61.79;102358.84;4963325;28;11126;-68
2023/05/04 01:34:13;;;;;;;;;13.25;11.50;;;;;9.49;61.25;102351.22;4958975;28;11091;-69
2023/05/04 01:36:40;;;;;;;;;13.50;10.75;;;;;9.51;61.33;102351.91;4967981;28;11220;-67
2023/05/04 01:39:08;;;;;;;;;9.00;9.00;;;;;9.53;61.85;102345.38;4972074;28;11653;-68
2023/05/04 01:41:35;;;;;;;;;12.50;11.75;;;;;9.48;60.93;102342.31;4973705;28;10869;-67
2023/05/04 01:44:03;;;;;;;;;9.75;9.75;;;;;9.51;61.33;102341.97;4962497;28;11278;-71
2023/05/04 01:46:29;;;;;;;;;14.25;11.50;;;;;9.39;61.39;102344.03;4960925;28;11082;-67
2023/05/04 01:48:56;;;;;;;;;12.25;11.25;;;;;9.37;62.06;102340.66;4969335;28;11189;-69
2023/05/04 01:51:22;;;;;;;;;12.00;10.75;;;;;9.43;62.24;102338.34;4965082;28;11102;-67
2023/05/04 01:53:49;;;;;;;;;9.50;9.25;;;;;9.47;62.20;102337.91;4956641;28;11005;-67
2023/05/04 01:56:15;;;;;;;;;14.25;13.25;;;;;9.43;61.37;102338.34;4965573;28;11072;-68
2023/05/04 01:58:43;;;;;;;;;9.75;8.75;;;;;9.41;61.87;102346.59;4983544;28;11114;-67
2023/05/04 02:01:09;;;;;;;;;10.50;10.00;;;;;9.40;61.68;102337.69;4972947;28;11089;-67
2023/05/04 02:03:36;;;;;;;;;11.00;11.00;;;;;9.44;61.79;102340.91;4967171;28;10979;-66
2023/05/04 02:06:03;;;;;;;;;10.75;10.25;;;;;9.45;61.96;102333.69;4970269;28;11756;-67
2023/05/04 02:08:29;;;;;;;;;12.25;12.25;;;;;9.35;61.41;102337.25;4958823;28;11083;-67
2023/05/04 02:10:55;;;;;;;;;13.25;11.75;;;;;9.30;62.05;102338.72;4972426;28;11126;-67
2023/05/04 02:13:22;;;;;;;;;13.25;11.75;;;;;9.26;61.90;102337.31;4965243;28;11168;-67
2023/05/04 02:15:49;;;;;;;;;12.75;12.25;;;;;9.16;62.17;102338.22;4979005;28;12013;-69
2023/05/04 02:18:15;;;;;;;;;12.25;11.25;;;;;9.08;63.02;102330.06;4972596;28;11139;-68
2023/05/04 02:20:42;;;;;;;;;10.00;10.00;;;;;9.16;62.94;102321.25;4965241;28;11016;-67
2023/05/04 02:23:08;;;;;;;;;7.00;7.00;;;;;9.22;62.83;102328.72;4983650;28;11115;-70
2023/05/04 02:25:38;;;;;;;;;9.50;8.25;;;;;9.28;62.83;102317.38;4953853;28;11100;-67
2023/05/04 02:28:04;;;;;;;;;14.00;10.00;;;;;9.28;62.19;102324.59;4970623;28;11052;-66
2023/05/04 02:30:31;;;;;;;;;12.00;11.00;;;;;9.18;61.02;102315.72;4971227;28;11291;-67
2023/05/04 02:32:57;;;;;;;;;11.00;10.75;;;;;9.09;62.67;102309.41;4957549;28;11053;-67
2023/05/04 02:35:24;;;;;;;;;12.75;10.75;;;;;9.16;61.77;102305.13;4963201;28;11165;-68
2023/05/04 02:37:50;;;;;;;;;10.25;9.25;;;;;9.16;62.28;102300.59;4963258;28;11036;-67
2023/05/04 02:40:16;;;;;;;;;14.00;11.00;;;;;9.07;62.48;102292.56;4967328;28;11785;-67
2023/05/04 02:42:43;;;;;;;;;8.25;8.25;;;;;8.97;61.48;102294.47;4966615;28;11134;-67
2023/05/04 02:45:10;;;;;;;;;12.50;12.00;;;;;8.91;62.07;102294.09;4957162;28;11296;-67
2023/05/04 02:47:36;;;;;;;;;11.75;9.75;;;;;8.84;63.08;102295.66;4961692;28;11121;-68
2023/05/04 02:50:03;;;;;;;;;13.00;11.00;;;;;8.79;62.37;102297.06;4961024;28;11205;-67
2023/05/04 02:52:31;;;;;;;;;8.00;8.00;;;;;8.81;63.68;102290.56;4964393;28;12008;-67
2023/05/04 02:54:58;;;;;;;;;12.75;10.00;;;;;8.88;63.06;102294.38;4965459;28;11040;-67
2023/05/04 02:57:25;;;;;;;;;11.00;10.50;;;;;8.86;62.68;102293.66;4969844;28;11210;-67
2023/05/04 02:59:51;;;;;;;;;12.75;12.50;;;;;8.82;62.88;102297.63;4961132;28;11094;-67
2023/05/04 03:02:17;;;;;;;;;12.00;10.00;;;;;8.76;63.78;102282.13;4964051;28;11837;-67
2023/05/04 03:04:44;;;;;;;;;8.25;8.00;;;;;8.81;63.73;102289.72;4970671;28;11226;-67
2023/05/04 03:07:11;;;;;;;;;14.50;12.75;;;;;8.81;62.98;102279.84;4978251;28;11019;-67
2023/05/04 03:09:37;;;;;;;;;14.50;13.00;;;;;8.78;62.20;102279.28;4951187;28;11156;-68
2023/05/04 03:12:04;;;;;;;;;8.75;8.25;;;;;8.78;63.16;102280.13;4944260;28;12160;-67
2023/05/04 03:14:31;;;;;;;;;12.00;8.00;;;;;8.79;62.86;102287.22;4954156;28;11794;-67
2023/05/04 03:16:58;;;;;;;;;9.50;7.75;;;;;8.77;63.72;102277.59;4953228;28;11086;-68
2023/05/04 03:19:25;;;;;;;;;12.00;11.50;;;;;8.82;62.97;102286.88;4956451;28;11076;-68
2023/05/04 03:21:51;;;;;;;;;14.75;11.00;;;;;8.79;62.77;102283.66;4956077;28;11528;-67
2023/05/04 03:24:18;;;;;;;;;12.00;11.50;;;;;8.77;63.08;102281.13;4976478;28;11337;-67
2023/05/04 03:26:46;;;;;;;;;12.00;11.50;;;;;8.71;63.09;102286.22;4956557;28;11262;-67
2023/05/04 03:29:12;;;;;;;;;16.50;13.25;;;;;8.60;63.13;102279.22;4959309;28;11146;-66
2023/05/04 03:31:39;;;;;;;;;9.25;8.75;;;;;8.56;63.90;102281.34;4962963;28;11118;-68
2023/05/04 03:34:08;;;;;;;;;16.25;14.00;;;;;8.51;63.54;102272.88;4974519;28;11365;-68
2023/05/04 03:36:35;;;;;;;;;12.25;10.00;;;;;8.54;64.60;102271.72;4960615;28;11577;-66
2023/05/04 03:39:01;;;;;;;;;11.75;9.50;;;;;8.54;63.94;102269.88;4971677;28;11434;-67
2023/05/04 03:41:28;;;;;;;;;7.25;6.75;;;;;8.44;63.16;102270.94;4958721;28;11613;-67
2023/05/04 03:43:54;;;;;;;;;14.75;11.75;;;;;8.39;64.43;102264.16;4951464;28;11119;-67
2023/05/04 03:46:21;;;;;;;;;13.50;11.00;;;;;8.48;64.90;102262.44;4951207;28;12355;-66
2023/05/04 03:48:47;;;;;;;;;13.25;12.25;;;;;8.60;64.29;102265.78;4958054;28;11543;-68
2023/05/04 03:51:16;;;;;;;;;10.50;10.50;;;;;8.68;63.89;102255.16;4953650;28;11368;-68
2023/05/04 03:53:42;;;;;;;;;11.00;11.00;;;;;8.73;63.17;102257.41;4973876;28;11195;-67
2023/05/04 03:56:11;;;;;;;;;15.25;11.25;;;;;8.68;63.23;102259.69;4952773;28;11205;-69
2023/05/04 03:58:38;;;;;;;;;12.50;10.50;;;;;8.72;64.02;102264.63;4954490;28;11292;-68
2023/05/04 04:01:05;;;;;;;;;15.25;12.25;;;;;8.70;64.06;102265.75;4963082;28;11908;-68
2023/05/04 04:03:32;;;;;;;;;14.75;10.25;;;;;8.63;63.68;102255.63;4949708;28;11560;-70
2023/05/04 04:05:59;;;;;;;;;14.00;12.25;;;;;8.55;63.88;102260.88;4955149;28;11318;-68
2023/05/04 04:08:25;;;;;;;;;14.25;14.25;;;;;8.54;64.13;102252.94;4966715;28;11372;-68
2023/05/04 04:10:52;;;;;;;;;15.50;13.00;;;;;8.54;64.13;102250.25;4937989;28;11572;-68
2023/05/04 04:13:18;;;;;;;;;14.00;10.25;;;;;8.49;63.74;102242.66;4952227;29;12143;-68
2023/05/04 04:15:45;;;;;;;;;11.00;10.75;;;;;8.53;64.28;102248.56;4951975;28;11194;-69
2023/05/04 04:18:12;;;;;;;;;13.50;12.00;;;;;8.59;64.06;102240.78;4963488;28;11281;-68
2023/05/04 04:20:38;;;;;;;;;11.75;10.75;;;;;8.63;63.40;102235.97;4955722;28;11153;-70
2023/05/04 04:23:05;;;;;;;;;12.75;12.25;;;;;8.53;63.97;102240.53;4963245;28;11155;-69
2023/05/04 04:25:31;;;;;;;;;21.00;14.25;;;;;8.47;64.55;102236.59;4954365;28;11268;-68
2023/05/04 04:27:57;;;;;;;;;11.75;11.75;;;;;8.48;64.59;102240.97;4945779;28;11207;-69
2023/05/04 04:30:24;;;;;;;;;11.25;11.25;;;;;8.46;64.54;102236.72;4955682;28;11258;-68
2023/05/04 04:32:51;;;;;;;;;15.50;12.75;;;;;8.51;64.74;102232.63;4970342;28;11147;-68
2023/05/04 04:35:17;;;;;;;;;16.75;13.00;;;;;8.52;63.80;102228.09;4964748;28;11033;-67
2023/05/04 04:37:43;;;;;;;;;16.25;13.75;;;;;8.52;63.95;102233.47;4951694;28;11235;-68
2023/05/04 04:40:10;;;;;;;;;13.75;11.25;;;;;8.48;63.76;102227.56;4962183;28;11158;-68
2023/05/04 04:42:37;;;;;;;;;12.25;12.25;;;;;8.56;64.21;102232.19;4961871;28;11048;-69
2023/05/04 04:45:04;;;;;;;;;17.50;14.50;;;;;8.67;64.66;102232.00;4956425;28;11810;-68
2023/05/04 04:47:31;;;;;;;;;11.50;11.25;;;;;8.72;64.01;102231.56;4966012;28;11070;-67
2023/05/04 04:49:58;;;;;;;;;15.50;15.00;;;;;8.69;63.31;102235.38;4954850;28;11361;-68
2023/05/04 04:52:24;;;;;;;;;14.00;13.00;;;;;8.59;63.50;102231.91;4960139;28;11286;-68
2023/05/04 04:54:51;;;;;;;;;14.25;11.00;;;;;8.58;64.89;102231.03;4955062;28;11195;-67
2023/05/04 04:57:17;;;;;;;;;15.00;14.75;;;;;8.67;63.92;102226.63;4954549;28;11309;-69
2023/05/04 04:59:45;;;;;;;;;15.75;13.00;;;;;8.70;63.78;102231.69;4952273;28;11239;-70
2023/05/04 05:02:11;;;;;;;;;17.25;14.75;;;;;8.64;63.95;102218.88;4972435;28;11254;-66
2023/05/04 05:04:40;;;;;;;;;16.25;15.75;;;;;8.62;63.73;102226.22;4964979;28;11311;-68
2023/05/04 05:07:09;;;;;;;;;12.75;12.00;;;;;8.61;64.74;102224.53;4957057;28;11332;-68
2023/05/04 05:09:36;;;;;;;;;14.75;14.75;;;;;8.57;64.13;102220.44;4958577;28;11212;-68
2023/05/04 05:12:03;;;;;;;;;18.25;14.00;;;;;8.58;63.61;102217.59;4974097;28;11331;-67
2023/05/04 05:14:34;;;;;;;;;22.25;15.75;;;;;8.61;64.35;102213.78;4949668;28;11274;-67
2023/05/04 05:17:02;;;;;;;;;17.00;14.50;;;;;8.67;63.92;102229.31;4974609;28;11344;-67
2023/05/04 05:19:29;;;;;;;;;17.25;16.00;;;;;8.60;63.90;102221.00;4967936;28;11567;-66
2023/05/04 05:21:58;;;;;;;;;15.50;14.50;;;;;8.53;63.71;102216.38;4969397;28;11163;-67
2023/05/04 05:24:25;;;;;;;;;18.50;14.00;;;;;8.61;64.80;102224.53;4967675;28;11215;-66
2023/05/04 05:26:52;;;;;;;;;19.50;16.00;;;;;8.66;64.30;102216.88;4965193;28;11352;-59
2023/05/04 05:29:18;;;;;;;;;15.50;12.75;;;;;9.03;65.86;102227.56;4957801;28;11570;-66
2023/05/04 05:31:45;;;;;;;;;14.25;14.25;;;;;9.08;64.42;102229.81;4961920;28;11183;-67
2023/05/04 05:34:12;;;;;;;;;20.50;17.50;;;;;9.09;64.20;102223.44;4957763;28;11265;-66
2023/05/04 05:36:38;;;;;;;;;18.00;15.00;;;;;9.10;63.36;102230.50;4956457;28;11235;-66
2023/05/04 05:39:05;;;;;;;;;15.75;15.00;;;;;9.13;63.59;102217.63;4965531;28;11052;-67
2023/05/04 05:41:31;;;;;;;;;13.00;13.00;;;;;9.22;63.86;102218.53;4955277;28;11128;-68
2023/05/04 05:43:58;;;;;;;;;13.00;10.75;;;;;9.32;63.03;102222.03;4960169;28;11190;-70
2023/05/04 05:46:26;;;;;;;;;18.75;15.00;;;;;9.30;62.86;102220.47;4955907;28;11033;-69
2023/05/04 05:48:53;;;;;;;;;17.25;13.25;;;;;9.29;62.65;102216.13;4956161;28;10999;-66
2023/05/04 05:51:19;;;;;;;;;26.00;17.75;;;;;9.21;62.75;102211.50;4965152;28;10977;-66
2023/05/04 05:53:46;;;;;;;;;18.75;17.25;;;;;9.21;62.81;102214.19;4954058;28;11419;-67
2023/05/04 05:56:13;;;;;;;;;22.50;19.50;;;;;9.17;62.86;102210.09;4952731;28;11020;-68
2023/05/04 05:58:40;;;;;;;;;17.25;12.25;;;;;9.22;62.93;102213.16;4958619;28;11225;-67
2023/05/04 06:01:07;;;;;;;;;16.25;15.00;;;;;9.26;63.30;102206.50;4973432;28;11081;-68
2023/05/04 06:03:33;;;;;;;;;20.25;17.00;;;;;9.28;63.27;102209.91;4957468;28;11242;-68
2023/05/04 06:06:00;;;;;;;;;21.00;14.00;;;;;9.31;62.22;102216.78;4972055;28;11234;-68
2023/05/04 06:08:26;;;;;;;;;19.75;14.75;;;;;9.43;63.37;102202.13;4956143;28;11167;-66
2023/05/04 06:10:53;;;;;;;;;24.25;19.00;;;;;9.54;62.32;102206.44;4973288;28;11207;-67
2023/05/04 06:13:19;;;;;;;;;18.25;16.50;;;;;9.63;62.62;102192.91;4956996;28;11373;-67
2023/05/04 06:15:51;;;;;;;;;15.50;14.00;;;;;9.71;62.13;102197.50;4968937;28;11102;-67
2023/05/04 06:18:19;;;;;;;;;17.00;16.25;;;;;9.72;61.75;102201.03;4951787;28;11266;-68
2023/05/04 06:20:45;;;;;;;;;15.00;13.75;;;;;9.72;61.55;102192.97;4953560;28;11381;-67
2023/05/04 06:23:13;;;;;;;;;15.50;13.25;;;;;9.74;61.97;102189.13;4952406;28;11206;-69
2023/05/04 06:25:40;;;;;;;;;14.25;13.75;;;;;9.81;62.02;102192.06;4953681;28;11071;-69
2023/05/04 06:28:07;;;;;;;;;19.00;17.00;;;;;9.85;61.70;102188.91;4953559;28;10906;-67
2023/05/04 06:30:33;;;;;;;;;23.50;16.50;;;;;9.83;61.05;102193.56;4966702;28;11084;-67
2023/05/04 06:32:59;;;;;;;;;17.25;16.00;;;;;9.86;61.39;102184.34;4958252;28;11241;-67
2023/05/04 06:35:28;;;;;;;;;22.25;15.75;;;;;9.96;61.26;102181.56;4953226;28;11886;-69
2023/05/04 06:37:55;;;;;;;;;15.25;15.00;;;;;10.08;61.74;102183.81;4953658;28;11636;-68
2023/05/04 06:40:21;;;;;;;;;18.25;17.00;;;;;10.19;61.13;102185.44;4952225;28;11133;-67
2023/05/04 06:42:48;;;;;;;;;18.00;17.75;;;;;10.25;60.48;102182.16;4953084;28;11074;-68
2023/05/04 06:45:14;;;;;;;;;16.75;16.00;;;;;10.30;60.67;102176.28;4971730;28;10930;-69
2023/05/04 06:47:41;;;;;;;;;23.25;21.50;;;;;10.34;60.31;102175.78;4987263;28;11323;-68
2023/05/04 06:50:09;;;;;;;;;23.25;19.25;;;;;10.37;60.15;102171.91;4971176;28;11159;-67
2023/05/04 06:52:39;;;;;;;;;16.50;16.50;;;;;10.38;60.02;102174.47;4963019;28;11197;-67
2023/05/04 06:55:07;;;;;;;;;21.75;20.00;;;;;10.37;59.50;102175.47;4951675;28;10934;-68
2023/05/04 06:57:33;;;;;;;;;16.00;16.00;;;;;10.38;60.17;102169.09;4955694;28;11069;-68
2023/05/04 07:00:00;;;;;;;;;24.50;21.50;;;;;10.43;59.68;102178.53;4953250;28;11087;-67
2023/05/04 07:02:26;;;;;;;;;20.25;19.50;;;;;10.43;59.46;102170.47;4951626;28;11809;-69
2023/05/04 07:04:53;;;;;;;;;17.75;15.50;;;;;10.46;59.81;102170.13;4961799;28;11183;-68
2023/05/04 07:07:19;;;;;;;;;21.25;19.25;;;;;10.53;59.98;102165.78;4974617;28;10936;-67
2023/05/04 07:09:47;;;;;;;;;20.25;18.00;;;;;10.58;59.56;102158.06;4973394;28;11156;-67
2023/05/04 07:12:13;;;;;;;;;17.00;15.25;;;;;10.74;60.38;102154.59;4968448;28;11109;-68
2023/05/04 07:14:39;;;;;;;;;17.75;16.75;;;;;10.95;59.84;102156.84;4953994;28;10853;-67
2023/05/04 07:17:08;;;;;;;;;15.75;15.75;;;;;11.07;58.79;102155.53;4952843;28;10841;-67
2023/05/04 07:19:35;;;;;;;;;15.50;15.25;;;;;11.08;58.40;102157.22;4965784;28;11011;-67
2023/05/04 07:22:02;;;;;;;;;17.00;17.00;;;;;11.09;58.46;102159.72;4967435;28;10922;-68
2023/05/04 07:24:29;;;;;;;;;15.00;13.25;;;;;11.18;58.79;102155.22;4953550;28;10866;-68
2023/05/04 07:26:56;;;;;;;;;21.00;19.00;;;;;11.22;58.61;102153.88;4951455;28;10671;-69
2023/05/04 07:29:22;;;;;;;;;18.50;15.00;;;;;11.30;58.02;102153.03;4952454;28;10776;-68
2023/05/04 07:31:49;;;;;;;;;19.75;15.00;;;;;11.29;57.67;102146.78;4951333;28;11363;-68
2023/05/04 07:34:15;;;;;;;;;15.50;15.50;;;;;11.29;58.18;102151.34;4966268;28;10702;-67
2023/05/04 07:36:41;;;;;;;;;22.50;19.25;;;;;11.33;58.20;102150.84;4970446;28;11276;-69
2023/05/04 07:39:09;;;;;;;;;21.50;16.50;;;;;11.37;58.07;102149.50;4971732;28;10811;-69
2023/05/04 07:41:35;;;;;;;;;23.50;18.75;;;;;11.41;57.38;102139.22;4971209;28;10842;-68
2023/05/04 07:44:04;;;;;;;;;20.25;19.25;;;;;11.35;57.58;102139.91;4952044;28;10768;-67
2023/05/04 07:46:31;;;;;;;;;25.00;22.00;;;;;11.33;57.89;102131.97;4970545;28;10701;-67
2023/05/04 07:48:57;;;;;;;;;20.75;16.75;;;;;11.38;58.16;102135.03;4968381;28;10895;-66
2023/05/04 07:51:24;;;;;;;;;21.00;19.50;;;;;11.47;57.46;102132.34;4971658;28;10681;-67
2023/05/04 07:53:50;;;;;;;;;18.50;18.50;;;;;11.50;57.89;102132.81;4952067;28;10833;-67
2023/05/04 07:56:17;;;;;;;;;18.25;18.00;;;;;11.53;57.65;102135.19;4950763;28;10804;-67
2023/05/04 07:58:43;;;;;;;;;21.00;18.00;;;;;11.48;57.25;102125.94;4952234;28;10887;-66
2023/05/04 08:01:10;;;;;;;;;19.75;16.75;;;;;11.44;58.11;102119.19;4954043;28;10966;-67
2023/05/04 08:03:37;;;;;;;;;15.75;15.75;;;;;11.55;58.28;102116.16;4962592;28;10758;-68
2023/05/04 08:06:03;;;;;;;;;23.00;21.75;;;;;11.60;57.82;102105.69;4971079;28;10698;-68
2023/05/04 08:08:29;;;;;;;;;21.50;19.50;;;;;11.60;57.65;102101.13;4970167;28;10582;-67
2023/05/04 08:10:56;;;;;;;;;21.75;18.50;;;;;11.68;57.93;102100.28;4970133;28;10836;-66
2023/05/04 08:13:38;;;;;;;;;19.00;18.50;;;;;11.77;57.97;102101.13;4952916;28;10786;-67
2023/05/04 08:16:05;;;;;;;;;19.50;16.00;;;;;11.85;58.12;102098.44;4951855;29;10692;-61
2023/05/04 08:18:32;;;;;;;;;28.00;23.00;;;;;11.88;57.63;102090.84;4962186;28;10601;-67
2023/05/04 08:20:58;;;;;;;;;15.75;15.00;;;;;11.95;57.60;102084.72;4971095;28;10918;-67
2023/05/04 08:23:25;;;;;;;;;20.00;19.25;;;;;12.06;57.36;102081.69;4953841;28;10576;-67
2023/05/04 08:25:51;;;;;;;;;22.00;18.50;;;;;12.11;57.25;102084.69;4958470;28;10499;-68
2023/05/04 08:28:17;;;;;;;;;21.50;18.00;;;;;12.16;57.08;102078.78;4971484;28;11193;-67
2023/05/04 08:30:44;;;;;;;;;21.00;18.00;;;;;12.23;57.21;102086.00;4971472;28;10574;-67
2023/05/04 08:33:10;;;;;;;;;17.00;16.50;;;;;12.31;57.60;102087.81;4957506;28;10652;-68
2023/05/04 08:35:37;;;;;;;;;20.00;20.00;;;;;12.40;57.27;102080.53;4951944;29;10550;-67
2023/05/04 08:38:03;;;;;;;;;16.50;16.50;;;;;12.40;56.73;102083.22;4952168;29;10604;-68
2023/05/04 08:40:30;;;;;;;;;28.25;23.25;;;;;12.45;56.82;102083.56;4951628;28;10546;-68
2023/05/04 08:42:56;;;;;;;;;20.00;17.25;;;;;12.49;56.41;102079.50;4952425;28;11423;-67
2023/05/04 08:45:24;;;;;;;;;21.00;18.25;;;;;12.59;56.53;102078.22;4936234;29;10595;-67
2023/05/04 08:47:50;;;;;;;;;19.25;16.75;;;;;12.72;56.68;102076.81;4936298;29;10698;-68
2023/05/04 08:50:17;;;;;;;;;25.50;22.00;;;;;12.75;56.20;102074.59;4955046;28;10448;-67
2023/05/04 08:52:47;;;;;;;;;22.75;16.25;;;;;12.75;56.14;102079.16;4955725;28;10679;-67
2023/05/04 08:55:16;;;;;;;;;18.25;16.25;;;;;12.79;56.54;102075.91;4970093;28;10345;-68
2023/05/04 08:57:43;;;;;;;;;19.75;19.75;;;;;12.94;56.35;102075.16;4966916;28;10361;-68
2023/05/04 09:00:15;;;;;;;;;14.00;13.50;;;;;13.11;56.33;102068.59;4971542;28;10488;-69
2023/05/04 09:02:42;;;;;;;;;19.25;18.50;;;;;13.22;55.61;102073.59;4938026;28;10356;-67
2023/05/04 09:05:10;;;;;;;;;20.00;18.00;;;;;13.28;55.92;102067.47;4955210;28;10366;-69
2023/05/04 09:07:36;;;;;;;;;15.00;15.00;;;;;13.35;55.97;102060.31;4953931;28;10206;-68
2023/05/04 09:10:03;;;;;;;;;18.00;18.00;;;;;13.40;55.77;102057.06;4955044;28;11112;-68
2023/05/04 09:12:30;;;;;;;;;20.00;18.00;;;;;13.41;55.04;102049.78;4956664;28;10408;-67
2023/05/04 09:14:57;;;;;;;;;18.00;16.75;;;;;13.51;54.93;102047.69;4969736;28;10364;-68
2023/05/04 09:17:26;;;;;;;;;20.75;18.25;;;;;13.52;53.92;102042.06;4954720;28;10353;-67
2023/05/04 09:20:03;;;;;;;;;17.75;17.00;;;;;13.54;54.32;102042.75;4953989;28;10353;-67
2023/05/04 09:22:30;;;;;;;;;18.25;15.00;;;;;13.64;53.84;102028.94;4953642;28;10294;-68
2023/05/04 09:25:07;;;;;;;;;18.50;14.50;;;;;13.76;53.97;102045.56;4954375;28;10253;-69
2023/05/04 09:27:33;;;;;;;;;23.00;19.50;;;;;13.85;54.50;102039.88;4954531;28;11001;-68
2023/05/04 09:30:00;;;;;;;;;19.75;18.50;;;;;13.97;55.11;102036.69;4954700;28;10076;-68
2023/05/04 09:32:27;;;;;;;;;21.25;18.00;;;;;13.97;54.93;102040.22;4953260;28;10863;-68
2023/05/04 09:34:53;;;;;;;;;20.50;16.50;;;;;13.99;54.81;102038.19;4957186;28;10102;-69
2023/05/04 09:37:20;;;;;;;;;20.50;18.75;;;;;14.08;55.41;102034.34;4955659;28;10218;-68
2023/05/04 09:39:52;;;;;;;;;19.25;16.75;;;;;14.24;55.23;102033.31;4974218;28;10094;-70
2023/05/04 09:42:19;;;;;;;;;18.00;17.00;;;;;14.37;55.22;102029.06;4974538;28;10044;-67
2023/05/04 09:45:00;;;;;;;;;17.50;17.50;;;;;14.57;54.37;102027.47;4951406;28;10107;-68
2023/05/04 09:47:35;;;;;;;;;17.50;17.50;;;;;14.71;54.28;102023.03;4954707;28;10119;-68
2023/05/04 09:50:14;;;;;;;;;26.25;23.25;;;;;14.84;53.27;102026.72;4969042;28;10864;-69
2023/05/04 09:52:46;;;;;;;;;21.25;18.25;;;;;14.92;53.60;102014.91;4987753;28;10492;-68
2023/05/04 09:55:14;;;;;;;;;23.50;19.50;;;;;15.04;53.66;102013.34;4963740;28;10056;-68
2023/05/04 09:57:42;;;;;;;;;20.75;20.75;;;;;15.17;52.30;102009.06;4949493;28;9890;-67
2023/05/04 10:00:17;;;;;;;;;21.25;18.50;;;;;15.17;52.36;102004.47;4954090;28;10096;-68
2023/05/04 10:02:45;;;;;;;;;19.75;16.00;;;;;15.26;53.02;101999.75;4971195;28;10742;-67
2023/05/04 10:05:17;;;;;;;;;20.25;17.75;;;;;15.46;52.94;101998.00;4962539;28;9865;-68
2023/05/04 10:07:44;;;;;;;;;20.50;19.50;;;;;15.57;53.38;101996.63;4969186;28;9878;-67
2023/05/04 10:10:13;;;;;;;;;19.75;17.25;;;;;15.56;52.52;101992.25;4953354;28;10043;-68
2023/05/04 10:12:39;;;;;;;;;24.75;22.25;;;;;15.57;52.83;101992.03;4954731;28;9879;-67
2023/05/04 10:15:08;;;;;;;;;16.50;15.25;;;;;15.64;52.99;101993.94;4953238;28;9922;-69
2023/05/04 10:17:40;;;;;;;;;21.75;15.50;;;;;15.73;53.20;101979.22;4960239;28;10451;-68
2023/05/04 10:20:32;;;;;;;;;17.00;15.25;;;;;15.89;53.05;101983.47;4956489;28;9731;-68
2023/05/04 10:23:27;;;;;;;;;18.50;18.00;;;;;15.98;51.70;101982.25;4953520;28;9614;-70
2023/05/04 10:25:56;;;;;;;;;19.75;16.25;;;;;16.05;52.30;101978.53;4953042;28;10364;-68
2023/05/04 10:28:44;;;;;;;;;18.25;16.50;;;;;16.04;52.50;101973.28;4953570;28;9948;-67
2023/05/04 10:31:10;;;;;;;;;24.75;24.50;;;;;16.02;52.04;101973.50;4959108;28;9854;-69
2023/05/04 10:33:38;;;;;;;;;20.75;17.50;;;;;16.01;51.50;101966.41;4972804;28;9966;-68
2023/05/04 10:36:05;;;;;;;;;21.25;20.00;;;;;16.09;52.51;101957.25;4957814;28;9758;-68
2023/05/04 10:38:34;;;;;;;;;18.50;16.50;;;;;16.17;52.47;101958.94;4958726;28;9748;-68
2023/05/04 10:41:11;;;;;;;;;23.00;21.25;;;;;16.19;52.28;101949.53;4972368;28;9638;-68
2023/05/04 10:43:38;;;;;;;;;26.25;22.25;;;;;16.21;52.71;101950.19;4971369;28;9792;-68
2023/05/04 10:46:15;;;;;;;;;20.50;18.75;;;;;16.20;52.46;101951.19;4969867;28;9793;-68
2023/05/04 10:48:42;;;;;;;;;21.00;18.00;;;;;16.16;51.91;101941.78;4972190;28;9667;-68
2023/05/04 10:51:20;;;;;;;;;17.75;17.75;;;;;16.24;52.05;101935.34;4972265;28;9723;-68
2023/05/04 10:53:47;;;;;;;;;21.50;20.00;;;;;16.31;51.85;101923.44;4952934;28;9606;-68
2023/05/04 10:56:23;;;;;;;;;16.75;16.00;;;;;16.39;51.65;101921.59;4952539;28;9999;-69
2023/05/04 10:58:51;;;;;;;;;20.75;19.00;;;;;16.49;51.79;101922.03;4952515;28;9743;-68
2023/05/04 11:01:19;;;;;;;;;21.25;17.00;;;;;16.55;51.33;101916.59;4968960;28;10374;-68
2023/05/04 11:03:47;;;;;;;;;19.00;17.00;;;;;16.65;51.58;101916.19;4971982;28;9782;-69
2023/05/04 11:06:23;;;;;;;;;19.25;17.50;;;;;16.73;51.45;101910.56;4954046;28;9625;-68
2023/05/04 11:09:01;;;;;;;;;16.00;15.75;;;;;16.76;51.16;101909.31;4952893;28;9711;-67
2023/05/04 11:11:28;;;;;;;;;23.00;18.25;;;;;16.71;51.14;101899.03;4933899;29;9649;-67
2023/05/04 11:13:55;;;;;;;;;23.25;20.50;;;;;16.61;51.62;101908.63;4944137;28;10534;-67
2023/05/04 11:16:23;;;;;;;;;21.00;20.25;;;;;16.54;51.56;101900.50;4950983;28;9808;-67